createdAt,value
2023-05-12T00:00:38.612Z,102329.70
2023-05-12T00:03:24.427Z,102327.48
2023-05-12T00:06:10.831Z,102329.27
2023-05-12T00:08:56.362Z,102329.94
2023-05-12T00:11:41.914Z,102332.46
2023-05-12T00:14:27.346Z,102330.44
2023-05-12T00:17:13.333Z,102335.63
2023-05-12T00:19:58.779Z,102333.10
2023-05-12T00:22:44.470Z,102335.87
2023-05-12T00:25:30.332Z,102338.81
2023-05-12T00:28:18.296Z,102334.91
2023-05-12T00:31:03.932Z,102329.25
2023-05-12T00:33:49.690Z,102325.73
2023-05-12T00:36:35.496Z,102328.23
2023-05-12T00:39:21.545Z,102328.20
2023-05-12T00:42:07.271Z,102326.96
2023-05-12T00:44:52.699Z,102330.31
2023-05-12T00:47:39.336Z,102330.65
2023-05-12T00:50:25.023Z,102331.02
2023-05-12T00:53:11.841Z,102329.02
2023-05-12T00:55:57.892Z,102327.73
2023-05-12T00:58:46.222Z,102331.04
2023-05-12T01:01:32.782Z,102334.18
2023-05-12T01:04:18.308Z,102338.04
2023-05-12T01:07:21.773Z,102340.90
2023-05-12T01:10:18.878Z,102338.64
2023-05-12T01:13:04.963Z,102339.58
2023-05-12T01:15:54.299Z,102341.03
2023-05-12T01:18:42.808Z,102338.83
2023-05-12T01:21:28.350Z,102332.63
2023-05-12T01:24:20.119Z,102330.07
2023-05-12T01:27:07.039Z,102327.55
2023-05-12T01:29:57.285Z,102326.23
2023-05-12T01:37:06.292Z,102329.88
2023-05-12T01:44:43.224Z,102330.16
2023-05-12T01:59:08.912Z,102331.56
2023-05-12T02:01:54.464Z,102331.07
2023-05-12T02:04:45.657Z,102328.27
2023-05-12T02:07:31.036Z,102326.33
2023-05-12T02:10:17.526Z,102329.44
2023-05-12T02:13:03.470Z,102331.52
2023-05-12T02:15:49.029Z,102329.73
2023-05-12T02:18:34.773Z,102328.09
2023-05-12T02:21:20.574Z,102325.98
2023-05-12T02:24:07.325Z,102320.90
2023-05-12T02:26:53.572Z,102320.59
2023-05-12T02:29:39.277Z,102317.63
2023-05-12T02:32:28.187Z,102320.02
2023-05-12T02:35:13.765Z,102317.80
2023-05-12T02:38:04.747Z,102316.82
2023-05-12T02:40:58.785Z,102319.13
2023-05-12T02:43:44.888Z,102322.54
2023-05-12T02:46:52.761Z,102321.69
2023-05-12T02:49:44.129Z,102318.58
2023-05-12T02:52:30.305Z,102315.88
2023-05-12T02:55:16.122Z,102311.27
2023-05-12T02:58:01.782Z,102311.59
2023-05-12T03:00:50.183Z,102313.34
2023-05-12T03:03:40.821Z,102313.02
2023-05-12T03:06:26.852Z,102311.70
2023-05-12T03:09:12.935Z,102319.52
2023-05-12T03:11:58.331Z,102322.23
2023-05-12T03:14:44.342Z,102318.96
2023-05-12T03:17:29.960Z,102322.41
2023-05-12T03:20:16.143Z,102324.45
2023-05-12T03:23:03.213Z,102328.61
2023-05-12T03:25:48.681Z,102328.48
2023-05-12T03:28:34.224Z,102330.89
2023-05-12T03:31:20.197Z,102330.61
2023-05-12T03:34:05.650Z,102335.82
2023-05-12T03:36:50.964Z,102335.75
2023-05-12T03:39:36.272Z,102337.84
2023-05-12T03:42:23.431Z,102343.45
2023-05-12T03:45:09.638Z,102347.27
2023-05-12T03:47:55.106Z,102348.44
2023-05-12T03:50:40.799Z,102349.64
2023-05-12T03:53:27.440Z,102347.81
2023-05-12T03:56:15.102Z,102346.15
2023-05-12T03:59:01.707Z,102346.05
2023-05-12T04:01:47.015Z,102348.95
2023-05-12T04:04:32.873Z,102349.89
2023-05-12T04:07:18.084Z,102348.36
2023-05-12T04:10:04.088Z,102351.04
2023-05-12T04:12:49.632Z,102353.23
2023-05-12T04:15:35.938Z,102353.47
2023-05-12T04:18:22.544Z,102353.72
2023-05-12T04:21:08.420Z,102356.45
2023-05-12T04:23:54.040Z,102358.27
2023-05-12T04:26:40.350Z,102357.77
2023-05-12T04:29:28.015Z,102355.00
2023-05-12T04:32:13.990Z,102356.27
2023-05-12T04:35:00.878Z,102352.58
2023-05-12T04:38:03.911Z,102351.33
2023-05-12T04:40:49.585Z,102354.54
2023-05-12T04:46:24.339Z,102354.04
2023-05-12T04:49:13.140Z,102353.52
2023-05-12T04:52:01.122Z,102351.93
2023-05-12T04:58:09.955Z,102348.19
2023-05-12T05:00:55.586Z,102350.30
2023-05-12T05:03:41.326Z,102354.55
2023-05-12T05:06:27.691Z,102354.88
2023-05-12T05:09:13.298Z,102350.98
2023-05-12T05:11:58.960Z,102350.41
2023-05-12T05:14:44.736Z,102347.60
2023-05-12T05:17:34.850Z,102347.20
2023-05-12T05:20:27.910Z,102349.30
2023-05-12T05:23:14.948Z,102347.64
2023-05-12T05:26:00.850Z,102350.26
2023-05-12T05:28:46.814Z,102351.83
2023-05-12T05:31:32.641Z,102349.99
2023-05-12T05:34:18.485Z,102357.91
2023-05-12T05:37:05.134Z,102359.27
2023-05-12T05:39:50.816Z,102359.91
2023-05-12T05:42:37.932Z,102357.34
2023-05-12T05:45:23.812Z,102358.14
2023-05-12T05:48:10.294Z,102358.48
2023-05-12T05:50:57.905Z,102359.71
2023-05-12T05:53:46.129Z,102358.81
2023-05-12T05:59:43.824Z,102356.91
2023-05-12T06:02:29.318Z,102358.13
2023-05-12T06:05:14.936Z,102357.86
2023-05-12T06:08:01.323Z,102364.17
2023-05-12T06:10:47.916Z,102361.65
2023-05-12T06:13:33.313Z,102361.57
2023-05-12T06:16:21.684Z,102362.23
2023-05-12T06:19:07.255Z,102359.98
2023-05-12T06:21:52.856Z,102365.14
2023-05-12T06:24:38.251Z,102357.33
2023-05-12T06:27:24.166Z,102367.48
2023-05-12T06:30:10.257Z,102363.84
2023-05-12T06:32:56.493Z,102362.98
2023-05-12T06:35:45.131Z,102361.25
2023-05-12T06:38:32.019Z,102360.83
2023-05-12T06:41:17.615Z,102362.17
2023-05-12T06:44:05.726Z,102366.15
2023-05-12T06:46:51.346Z,102365.73
2023-05-12T06:49:38.123Z,102368.42
2023-05-12T06:52:24.422Z,102367.14
2023-05-12T06:55:10.191Z,102368.08
2023-05-12T06:57:55.779Z,102367.05
2023-05-12T07:00:41.950Z,102369.42
2023-05-12T07:03:31.761Z,102367.58
2023-05-12T07:06:17.986Z,102368.98
2023-05-12T07:09:05.485Z,102370.75
2023-05-12T07:11:51.183Z,102368.44
2023-05-12T07:14:38.380Z,102371.02
2023-05-12T07:17:24.149Z,102371.14
2023-05-12T07:20:10.329Z,102368.67
2023-05-12T07:22:56.836Z,102363.92
2023-05-12T07:25:42.494Z,102368.02
2023-05-12T07:28:31.854Z,102368.31
2023-05-12T07:31:19.664Z,102371.16
2023-05-12T07:34:05.546Z,102363.08
2023-05-12T07:36:51.212Z,102364.11
2023-05-12T07:39:40.830Z,102368.41
2023-05-12T07:42:26.526Z,102367.96
2023-05-12T07:45:11.987Z,102360.77
2023-05-12T07:47:57.564Z,102357.00
2023-05-12T07:50:44.283Z,102360.02
2023-05-12T07:53:29.626Z,102360.35
2023-05-12T07:56:15.343Z,102364.33
2023-05-12T07:59:00.872Z,102363.59
2023-05-12T08:01:47.154Z,102362.43
2023-05-12T08:04:32.883Z,102359.75
2023-05-12T08:07:18.679Z,102362.40
2023-05-12T08:10:05.854Z,102361.59
2023-05-12T08:12:51.081Z,102364.32
2023-05-12T08:15:53.572Z,102366.38
2023-05-12T08:18:39.539Z,102363.08
2023-05-12T08:21:25.246Z,102364.88
2023-05-12T08:24:10.936Z,102366.12
2023-05-12T08:26:58.456Z,102364.19
2023-05-12T08:29:43.990Z,102363.15
2023-05-12T08:32:31.569Z,102366.36
2023-05-12T08:35:19.203Z,102360.85
2023-05-12T08:38:05.887Z,102371.95
2023-05-12T08:41:14.556Z,102369.03
2023-05-12T08:44:00.632Z,102371.09
2023-05-12T08:46:47.601Z,102375.20
2023-05-12T08:49:38.262Z,102371.83
2023-05-12T08:52:24.612Z,102373.18
2023-05-12T08:55:10.837Z,102373.75
2023-05-12T08:57:57.999Z,102371.95
2023-05-12T09:00:45.675Z,102373.90
2023-05-12T09:03:32.825Z,102373.98
2023-05-12T09:06:19.087Z,102373.57
2023-05-12T09:09:05.858Z,102373.27
2023-05-12T09:11:55.933Z,102374.20
2023-05-12T09:14:44.861Z,102375.54
2023-05-12T09:17:30.698Z,102377.13
2023-05-12T09:20:30.139Z,102377.29
2023-05-12T09:23:21.723Z,102373.83
2023-05-12T09:26:06.934Z,102372.43
2023-05-12T09:28:54.437Z,102372.19
2023-05-12T09:31:50.719Z,102368.95
2023-05-12T09:34:37.797Z,102367.64
2023-05-12T09:37:31.010Z,102366.58
2023-05-12T09:40:19.769Z,102368.27
2023-05-12T09:43:06.173Z,102366.73
2023-05-12T09:45:51.793Z,102366.20
2023-05-12T09:48:38.561Z,102365.89
2023-05-12T09:51:25.463Z,102365.91
2023-05-12T09:54:11.257Z,102363.33
2023-05-12T09:57:02.033Z,102361.61
2023-05-12T09:59:49.221Z,102360.63
2023-05-12T10:02:40.346Z,102366.75
2023-05-12T10:05:28.119Z,102367.04
2023-05-12T10:08:20.444Z,102362.44
2023-05-12T10:11:07.275Z,102364.23
2023-05-12T10:13:53.052Z,102364.77
2023-05-12T10:16:40.719Z,102362.75
2023-05-12T10:19:28.034Z,102359.70
2023-05-12T10:22:19.036Z,102355.91
2023-05-12T10:25:06.325Z,102356.34
2023-05-12T10:27:53.511Z,102356.55
2023-05-12T10:30:41.195Z,102353.66
2023-05-12T10:33:29.991Z,102352.40
2023-05-12T10:36:17.884Z,102354.47
2023-05-12T10:39:07.024Z,102353.73
2023-05-12T10:42:01.666Z,102354.55
2023-05-12T10:44:50.657Z,102352.89
2023-05-12T10:47:37.445Z,102351.27
2023-05-12T10:50:27.417Z,102350.02
2023-05-12T10:53:13.632Z,102352.96
2023-05-12T10:56:04.849Z,102356.94
2023-05-12T10:59:21.925Z,102354.77
2023-05-12T11:02:20.029Z,102353.96
2023-05-12T11:05:11.541Z,102358.62
2023-05-12T11:07:59.016Z,102359.38
2023-05-12T11:11:32.695Z,102360.20
2023-05-12T11:14:19.910Z,102360.15
2023-05-12T11:17:05.610Z,102357.06
2023-05-12T11:19:52.138Z,102359.30
2023-05-12T11:22:40.404Z,102356.45
2023-05-12T11:25:27.700Z,102355.19
2023-05-12T11:28:13.137Z,102355.55
2023-05-12T11:30:58.969Z,102354.55
2023-05-12T11:33:44.089Z,102353.64
2023-05-12T11:36:36.503Z,102355.85
2023-05-12T11:39:24.847Z,102357.23
2023-05-12T11:42:13.619Z,102357.70
2023-05-12T11:44:59.982Z,102357.55
2023-05-12T11:47:45.460Z,102356.07
2023-05-12T11:50:32.732Z,102353.98
2023-05-12T11:53:18.849Z,102356.98
2023-05-12T11:56:04.871Z,102354.50
2023-05-12T11:58:57.289Z,102351.59
2023-05-12T12:01:46.223Z,102354.92
2023-05-12T12:04:32.162Z,102360.52
2023-05-12T12:07:33.240Z,102359.02
2023-05-12T12:10:19.713Z,102355.06
2023-05-12T12:13:05.639Z,102356.05
2023-05-12T12:15:51.880Z,102356.92
2023-05-12T12:18:37.570Z,102356.59
2023-05-12T12:21:24.977Z,102352.44
2023-05-12T12:24:11.585Z,102352.89
2023-05-12T12:26:59.233Z,102351.54
2023-05-12T12:29:44.778Z,102349.36
2023-05-12T12:32:30.768Z,102347.96
2023-05-12T12:35:16.732Z,102344.00
2023-05-12T12:38:02.182Z,102344.73
2023-05-12T12:40:48.161Z,102340.23
2023-05-12T12:43:33.979Z,102342.20
2023-05-12T12:46:19.786Z,102340.73
2023-05-12T12:49:05.135Z,102337.58
2023-05-12T12:51:50.727Z,102336.94
2023-05-12T12:54:36.881Z,102337.75
2023-05-12T12:57:22.364Z,102338.05
2023-05-12T13:00:09.478Z,102334.17
2023-05-12T13:02:55.849Z,102333.63
2023-05-12T13:05:41.597Z,102333.23
2023-05-12T13:08:27.250Z,102334.44
2023-05-12T13:11:14.130Z,102329.94
2023-05-12T13:14:01.643Z,102327.98
2023-05-12T13:16:47.221Z,102328.67
2023-05-12T13:19:32.578Z,102328.81
2023-05-12T13:22:18.165Z,102325.58
2023-05-12T13:25:06.998Z,102324.27
2023-05-12T13:27:52.489Z,102328.27
2023-05-12T13:30:39.461Z,102326.54
2023-05-12T13:33:26.313Z,102323.42
2023-05-12T13:36:11.707Z,102326.23
2023-05-12T13:38:57.539Z,102323.06
2023-05-12T13:41:42.974Z,102324.77
2023-05-12T13:44:28.520Z,102324.95
2023-05-12T13:47:16.071Z,102321.81
2023-05-12T13:50:02.025Z,102319.54
2023-05-12T13:52:47.323Z,102322.20
2023-05-12T13:55:39.871Z,102324.04
2023-05-12T13:58:26.291Z,102322.14
2023-05-12T14:01:12.630Z,102322.60
2023-05-12T14:03:58.465Z,102321.61
2023-05-12T14:06:43.975Z,102321.48
2023-05-12T14:09:29.604Z,102321.54
2023-05-12T14:12:14.949Z,102323.79
2023-05-12T14:15:16.021Z,102323.58
2023-05-12T14:18:06.433Z,102324.93
2023-05-12T14:20:53.882Z,102328.30
2023-05-12T14:24:05.585Z,102323.83
2023-05-12T14:26:51.040Z,102327.19
2023-05-12T14:29:36.799Z,102328.91
2023-05-12T14:32:22.354Z,102329.45
2023-05-12T14:35:09.905Z,102327.63
2023-05-12T14:37:56.100Z,102327.18
2023-05-12T14:40:42.959Z,102323.05
2023-05-12T14:43:28.141Z,102324.55
2023-05-12T14:46:15.736Z,102321.12
2023-05-12T14:49:01.990Z,102321.45
2023-05-12T14:51:48.991Z,102326.16
2023-05-12T14:54:34.374Z,102319.83
2023-05-12T14:57:19.649Z,102316.13
2023-05-12T15:00:10.258Z,102313.98
2023-05-12T15:02:57.501Z,102313.93
2023-05-12T15:06:01.761Z,102313.52
2023-05-12T15:08:48.291Z,102309.33
2023-05-12T15:11:33.653Z,102303.08
2023-05-12T15:14:19.336Z,102307.37
2023-05-12T15:17:04.758Z,102304.04
2023-05-12T15:19:50.538Z,102300.17
2023-05-12T15:22:36.256Z,102301.69
2023-05-12T15:25:22.012Z,102302.80
2023-05-12T15:28:07.974Z,102301.28
2023-05-12T15:30:55.997Z,102303.89
2023-05-12T15:33:41.906Z,102306.05
2023-05-12T15:36:29.010Z,102304.37
2023-05-12T15:39:17.822Z,102304.67
2023-05-12T15:42:05.368Z,102301.11
2023-05-12T15:44:52.121Z,102301.30
2023-05-12T15:47:37.347Z,102294.75
2023-05-12T15:50:23.223Z,102294.74
2023-05-12T15:53:09.024Z,102297.60
2023-05-12T15:56:05.753Z,102298.66
2023-05-12T15:58:51.189Z,102297.39
2023-05-12T16:01:36.658Z,102291.75
2023-05-12T16:04:23.867Z,102291.59
2023-05-12T16:07:10.956Z,102290.83
2023-05-12T16:09:57.443Z,102287.63
2023-05-12T16:12:45.258Z,102286.58
2023-05-12T16:15:31.442Z,102287.21
2023-05-12T16:18:18.007Z,102287.55
2023-05-12T16:21:03.399Z,102289.30
2023-05-12T16:23:48.803Z,102288.78
2023-05-12T16:26:40.627Z,102288.34
2023-05-12T16:29:28.983Z,102289.52
2023-05-12T16:32:14.613Z,102294.65
2023-05-12T16:35:00.616Z,102299.41
2023-05-12T16:37:46.947Z,102304.52
2023-05-12T16:40:34.080Z,102306.95
2023-05-12T16:43:19.797Z,102310.65
2023-05-12T16:46:05.576Z,102312.34
2023-05-12T16:48:50.909Z,102312.23
2023-05-12T16:51:36.293Z,102313.55
2023-05-12T16:54:21.628Z,102318.25
2023-05-12T16:57:07.155Z,102314.40
2023-05-12T16:59:52.801Z,102321.77
2023-05-12T17:02:38.902Z,102325.71
2023-05-12T17:05:24.861Z,102324.71
2023-05-12T17:08:10.945Z,102325.48
2023-05-12T17:10:56.675Z,102323.42
2023-05-12T17:13:42.443Z,102322.95
2023-05-12T17:16:27.995Z,102325.50
2023-05-12T17:19:14.049Z,102326.44
2023-05-12T17:22:00.682Z,102327.58
2023-05-12T17:24:46.344Z,102324.98
2023-05-12T17:27:31.698Z,102326.86
2023-05-12T17:30:18.030Z,102329.39
2023-05-12T17:33:03.744Z,102330.64
2023-05-12T17:36:03.885Z,102331.42
2023-05-12T17:38:54.801Z,102337.52
2023-05-12T17:41:40.352Z,102333.64
2023-05-12T17:44:25.780Z,102336.38
2023-05-12T17:49:58.862Z,102347.76
2023-05-12T17:52:45.494Z,102347.13
2023-05-12T17:55:31.109Z,102351.80
2023-05-12T17:58:16.365Z,102357.16
2023-05-12T18:01:02.014Z,102360.54
2023-05-12T18:03:47.503Z,102362.52
2023-05-12T18:06:33.351Z,102362.70
2023-05-12T18:09:25.189Z,102363.95
2023-05-12T18:12:10.901Z,102365.55
2023-05-12T18:14:56.480Z,102365.75
2023-05-12T18:17:42.521Z,102362.77
2023-05-12T18:20:28.358Z,102363.88
2023-05-12T18:23:14.135Z,102367.48
2023-05-12T18:25:59.618Z,102366.30
2023-05-12T18:28:45.521Z,102366.21
2023-05-12T18:31:30.920Z,102367.88
2023-05-12T18:34:16.940Z,102367.23
2023-05-12T18:37:03.134Z,102365.51
2023-05-12T18:39:48.383Z,102367.70
2023-05-12T18:42:34.376Z,102363.62
2023-05-12T18:45:20.691Z,102365.59
2023-05-12T18:48:06.132Z,102363.48
2023-05-12T18:50:52.094Z,102365.98
2023-05-12T18:53:37.453Z,102363.19
2023-05-12T18:56:23.517Z,102360.00
2023-05-12T18:59:09.106Z,102359.83
2023-05-12T19:01:56.270Z,102362.15
2023-05-12T19:04:41.927Z,102366.06
2023-05-12T19:07:27.135Z,102363.39
2023-05-12T19:10:12.699Z,102358.25
2023-05-12T19:12:58.024Z,102358.25
2023-05-12T19:15:43.565Z,102357.02
2023-05-12T19:18:29.225Z,102355.09
2023-05-12T19:21:15.157Z,102358.84
2023-05-12T19:24:00.885Z,102355.64
2023-05-12T19:26:46.669Z,102353.35
2023-05-12T19:29:32.330Z,102354.95
2023-05-12T19:32:17.921Z,102351.98
2023-05-12T19:35:06.716Z,102350.92
2023-05-12T19:37:52.067Z,102350.40
2023-05-12T19:40:37.326Z,102352.91
2023-05-12T19:43:22.686Z,102357.36
2023-05-12T19:46:08.189Z,102356.35
2023-05-12T19:48:54.165Z,102351.59
2023-05-12T19:51:39.386Z,102349.29
2023-05-12T19:54:24.737Z,102347.86
2023-05-12T19:57:09.957Z,102350.50
2023-05-12T19:59:55.462Z,102351.20
2023-05-12T20:02:42.432Z,102346.91
2023-05-12T20:05:27.910Z,102349.56
2023-05-12T20:08:13.343Z,102349.08
2023-05-12T20:10:59.058Z,102346.27
2023-05-12T20:13:45.300Z,102347.01
2023-05-12T20:16:30.811Z,102345.27
2023-05-12T20:19:16.480Z,102345.32
2023-05-12T20:22:02.161Z,102345.70
2023-05-12T20:24:47.895Z,102348.20
2023-05-12T20:27:33.326Z,102346.98
2023-05-12T20:30:19.110Z,102350.92
2023-05-12T20:33:04.737Z,102347.05
2023-05-12T20:35:53.210Z,102348.11
2023-05-12T20:38:41.226Z,102346.89
2023-05-12T20:41:27.355Z,102349.70
2023-05-12T20:44:12.808Z,102345.29
2023-05-12T20:46:58.431Z,102340.52
2023-05-12T20:49:44.589Z,102344.26
2023-05-12T20:52:30.567Z,102344.79
2023-05-12T20:55:15.802Z,102341.42
2023-05-12T20:58:01.359Z,102343.21
2023-05-12T21:00:46.990Z,102339.64
2023-05-12T21:03:33.485Z,102338.05
2023-05-12T21:06:19.391Z,102343.58
2023-05-12T21:09:05.189Z,102348.35
2023-05-12T21:11:50.370Z,102349.59
2023-05-12T21:14:43.412Z,102349.96
2023-05-12T21:17:29.025Z,102346.77
2023-05-12T21:20:14.596Z,102346.42
2023-05-12T21:23:00.394Z,102344.66
2023-05-12T21:25:45.870Z,102338.45
2023-05-12T21:28:31.479Z,102336.16
2023-05-12T21:31:17.372Z,102331.73
2023-05-12T21:34:03.414Z,102333.14
2023-05-12T21:36:48.833Z,102338.80
2023-05-12T21:39:33.961Z,102338.80
2023-05-12T21:42:19.459Z,102340.59
2023-05-12T21:45:05.669Z,102345.73
2023-05-12T21:47:51.881Z,102342.89
2023-05-12T21:50:37.964Z,102346.96
2023-05-12T21:53:23.564Z,102345.36
2023-05-12T21:56:09.158Z,102341.98
2023-05-12T21:58:55.297Z,102346.95
2023-05-12T22:01:40.754Z,102345.89
2023-05-12T22:04:26.428Z,102344.84
2023-05-12T22:07:11.825Z,102346.08
2023-05-12T22:09:57.566Z,102339.52
2023-05-12T22:12:42.946Z,102345.91
2023-05-12T22:15:28.238Z,102343.42
2023-05-12T22:18:13.944Z,102341.12
2023-05-12T22:21:00.209Z,102333.14
2023-05-12T22:23:45.551Z,102330.14
2023-05-12T22:26:30.738Z,102327.30
2023-05-12T22:29:16.390Z,102319.86
2023-05-12T22:32:01.812Z,102320.05
2023-05-12T22:34:47.509Z,102318.98
2023-05-12T22:37:33.068Z,102315.27
2023-05-12T22:40:21.014Z,102311.37
2023-05-12T22:43:06.781Z,102311.89
2023-05-12T22:45:52.582Z,102309.23
2023-05-12T22:48:39.469Z,102309.07
2023-05-12T22:51:25.257Z,102315.62
2023-05-12T22:54:10.886Z,102313.30
2023-05-12T22:56:56.497Z,102313.14
2023-05-12T22:59:42.126Z,102309.59
2023-05-12T23:02:27.348Z,102309.25
2023-05-12T23:05:12.525Z,102309.42
2023-05-12T23:07:57.712Z,102306.75
2023-05-12T23:10:43.307Z,102304.80
2023-05-12T23:13:28.908Z,102308.16
2023-05-12T23:16:14.290Z,102307.09
2023-05-12T23:19:00.122Z,102301.05
2023-05-12T23:21:45.796Z,102299.80
2023-05-12T23:24:31.125Z,102297.28
2023-05-12T23:27:16.632Z,102300.29
2023-05-12T23:30:02.477Z,102299.58
2023-05-12T23:32:49.753Z,102295.67
2023-05-12T23:35:35.608Z,102292.65
2023-05-12T23:38:21.486Z,102288.92
2023-05-12T23:41:07.211Z,102286.97
2023-05-12T23:43:52.885Z,102285.00
2023-05-12T23:46:38.605Z,102283.92
2023-05-12T23:49:24.810Z,102282.66
2023-05-12T23:52:10.462Z,102285.64
2023-05-12T23:54:55.679Z,102285.09
2023-05-12T23:57:41.316Z,102288.44
